Upper Greenwood Lake, New Jersey
Current Conditions -  °F | °C
As of 11:05 AM on Sunday 21 Dec 2014 (Local Time) from KFWN Reporting Station
Overcast Overcast  
Wind Chill: 30°   Ceiling: 1200
Heat Index: 30°   Visibility: 7mi
Dew Point: 27°   Wind: 0mph
Humidity: 88%   Direction: NA
Pressure: 30.31"   Gusts: NA
Location:  41.1652°N, 74.3769°W
Report Text: KFWN 211605Z AUTO 00000KT 7SM OVC012 M01/M03 A3031 RMK AO2 T10111028
Loading
Personal Weather Stations






























Interactive Weather Map New forecast layout! Learn more

10-Day Weather Forecast

Advertisements
Track Severe Weather on mobile